Flight Track Log - Related Links

Times and Time Zones

All times are in EDT time to prevent confusion due to time zone crossing. See the N572CT flight status page for this flight to view local times or setup timezone preferences in your user account.


Time Position Orientation Groundspeed Altitude Reporting Facility
EDT Latitude Longitude Course Direction KTS MPH feet Rate Location/Type
Mon 09:30:00 AM 37.5833 -79.1467 North  Level FlightAware Approximate
Mon 09:31:00 AM 37.6279 -79.1378 North  Level FlightAware Approximate
Mon 09:32:00 AM 37.6724 -79.1289 North  Level FlightAware Approximate
Mon 09:33:00 AM 37.7169 -79.1200 North  Level FlightAware Approximate
Mon 09:34:00 AM 37.7617 -79.1138 North  Level FlightAware Approximate
Mon 09:35:00 AM 37.8066 -79.1093 North  Level FlightAware Approximate
Mon 09:36:00 AM 37.8516 -79.1049 North  Level FlightAware Approximate
Mon 09:37:00 AM 37.8965 -79.1003 North  Level FlightAware Approximate
Mon 09:37:09 AM 37.6667 -79.1833 32° Northeast 159 183 7,000  Level Potomac TRACON
Mon 09:38:00 AM 37.9353 -79.0722 32° Northeast  Level FlightAware Approximate
Mon 09:38:15 AM 37.7167 -79.1667 15° North 158 182 7,000  Level Potomac TRACON
Mon 09:39:00 AM 37.9737 -79.0420 32° Northeast  Level FlightAware Approximate
Mon 09:39:15 AM 37.7500 -79.1500 22° Northeast 158 182 7,000  Level Potomac TRACON
Mon 09:40:00 AM 38.0119 -79.0118 32° Northeast  Level FlightAware Approximate
Mon 09:40:09 AM 37.7833 -79.1333 22° Northeast 158 182 7,000  Level Potomac TRACON
Mon 09:41:00 AM 38.0502 -78.9816 32° Northeast  Level FlightAware Approximate
Mon 09:41:04 AM 37.8333 -79.1333 360° North 162 186 7,000  Level Potomac TRACON
Mon 09:42:00 AM 38.0885 -78.9513 32° Northeast  Level FlightAware Approximate
Mon 09:42:04 AM 37.8833 -79.1167 15° North 164 189 7,000  Level Potomac TRACON
Mon 09:43:04 AM 37.9167 -79.1000 22° Northeast 166 191 7,000  Level Potomac TRACON
Mon 09:44:05 AM 37.9667 -79.0667 28° Northeast 172 198 7,000  Level Potomac TRACON
Mon 09:45:05 AM 38.0000 -79.0333 38° Northeast 162 186 7,000  Level Potomac TRACON
Mon 09:46:05 AM 38.0333 -79.0000 38° Northeast 174 200 7,000  Level Potomac TRACON
Mon 09:47:05 AM 38.0833 -78.9833 15° North 160 184 7,000  Level Potomac TRACON
Mon 09:47:59 AM 38.1167 -78.9500 38° Northeast 162 186 7,000  Level Potomac TRACON
Mon 09:48:59 AM 38.1500 -78.9167 38° Northeast 161 185 7,000  Level Potomac TRACON
Mon 09:50:48 AM 38.2203 -78.8717 27° Northeast 162 186 7,000  Level Washington Center
Mon 09:51:49 AM 38.2606 -78.8444 28° Northeast 162 186 7,000  Level Washington Center
Mon 09:52:49 AM 38.2928 -78.8139 37° Northeast 162 186 7,000  Level Washington Center
Mon 09:53:49 AM 38.3331 -78.7839 30° Northeast 162 186 7,000  Level Washington Center
Mon 09:54:50 AM 38.3694 -78.7536 33° Northeast 162 186 7,000  Level Washington Center
Mon 09:55:51 AM 38.4078 -78.7236 32° Northeast 162 186 7,000  Level Washington Center
Mon 09:56:48 AM 38.4461 -78.6933 32° Northeast 162 186 7,000  Level Washington Center
Mon 09:57:49 AM 38.4844 -78.6606 34° Northeast 162 186 7,000  Level Washington Center
Mon 09:58:50 AM 38.5206 -78.6300 34° Northeast 162 186 7,000  Level Washington Center
Mon 09:59:48 AM 38.5611 -78.5972 32° Northeast 162 186 7,000  Level Washington Center
Mon 10:00:49 AM 38.5994 -78.5669 32° Northeast 162 186 7,000  Level Washington Center
Mon 10:01:50 AM 38.6397 -78.5367 30° Northeast 162 186 7,000  Level Washington Center
Mon 10:02:48 AM 38.6758 -78.5036 36° Northeast 162 186 7,000  Level Washington Center
Mon 10:03:48 AM 38.7144 -78.4678 36° Northeast 162 186 7,000  Level Washington Center
Mon 10:04:49 AM 38.7528 -78.4319 36° Northeast 167 192 7,000  Level Washington Center
Mon 10:05:50 AM 38.7889 -78.3989 36° Northeast 167 192 7,000  Level Washington Center
Mon 10:06:48 AM 38.8272 -78.3631 36° Northeast 172 198 7,000  Level Washington Center
Mon 10:07:49 AM 38.8656 -78.3269 36° Northeast 172 198 7,000  Level Washington Center
Mon 10:09:56 AM 38.9500 -78.2500 35° Northeast 170 196 7,000  Level Potomac TRACON
Mon 10:10:56 AM 38.9833 -78.2167 38° Northeast 170 196 7,000  Level Potomac TRACON
Mon 10:11:57 AM 39.0333 -78.1833 27° Northeast 170 196 7,000  Level Potomac TRACON
Mon 10:12:51 AM 39.0667 -78.1500 38° Northeast 170 196 7,000  Level Potomac TRACON
Mon 10:13:56 AM 39.1000 -78.1167 38° Northeast 171 197 7,000  Level Potomac TRACON
Mon 10:14:51 AM 39.1333 -78.0833 38° Northeast 172 198 7,000  Level Potomac TRACON
Mon 10:15:51 AM 39.1833 -78.0333 38° Northeast 172 198 7,000  Level Potomac TRACON
Mon 10:16:51 AM 39.2167 -78.0000 38° Northeast 169 194 7,000  Level Potomac TRACON
Mon 10:17:57 AM 39.2667 -77.9667 27° Northeast 169 194 7,000  Level Potomac TRACON
Mon 10:18:57 AM 39.3000 -77.9333 38° Northeast 169 194 7,000  Level Potomac TRACON
Mon 10:20:04 AM 39.3333 -77.8833 49° Northeast 171 197 7,000  Level Potomac TRACON
Mon 10:21:04 AM 39.3833 -77.8500 27° Northeast 171 197 7,000  Level Potomac TRACON
Mon 10:22:04 AM 39.3833 -77.8000 90° East 167 192 7,000  Level Potomac TRACON
Mon 10:23:04 AM 39.4000 -77.7333 72° East 170 196 7,000  Level Potomac TRACON
Mon 10:25:04 AM 39.4333 -77.6333 67° East 173 199 7,000  Level Potomac TRACON
Mon 10:26:11 AM 39.4833 -77.6000 27° Northeast 170 196 7,000  Level Potomac TRACON
Mon 10:27:17 AM 39.5333 -77.5667 27° Northeast 172 198 7,000  Level Potomac TRACON
Mon 10:28:11 AM 39.5667 -77.5333 38° Northeast 174 200 7,000  Level Potomac TRACON
Mon 10:29:12 AM 39.6167 -77.5167 14° North 176 203 7,000  Level Potomac TRACON
Mon 10:30:18 AM 39.6500 -77.4833 38° Northeast 173 199 7,000  Level Potomac TRACON
Mon 10:55:42 AM 40.3144 -76.1853 36° Northeast 167 192 7,000  Level New York Center
Mon 10:56:00 AM 40.2050 -76.3131 48° Northeast  Level FlightAware Approximate
Mon 10:56:55 AM 40.3483 -76.1253 53° Northeast 165 190 7,000  Level New York Center
Mon 10:57:00 AM 40.2338 -76.2707 48° Northeast  Level FlightAware Approximate
Mon 10:57:53 AM 40.3758 -76.0728 55° Northeast 166 191 7,000  Level New York Center
Mon 10:58:00 AM 40.2627 -76.2282 48° Northeast  Level FlightAware Approximate
Mon 10:59:00 AM 40.2915 -76.1858 48° Northeast  Level FlightAware Approximate
Mon 10:59:19 AM 40.4164 -76.0050 52° Northeast 169 194 7,000  Level New York Center
Mon 11:00:00 AM 40.3203 -76.1433 48° Northeast  Level FlightAware Approximate
Mon 11:00:13 AM 40.4433 -75.9608 51° Northeast 169 194 7,000  Level New York Center
Mon 11:01:00 AM 40.3554 -76.1099 36° Northeast  Level FlightAware Approximate
Mon 11:01:15 AM 40.4703 -75.9136 53° Northeast 169 194 7,000  Level New York Center
Mon 11:02:14 AM 40.4997 -75.8611 54° Northeast 170 196 7,000  Level New York Center
Mon 11:03:21 AM 40.5294 -75.8033 56° Northeast 168 193 7,000  Level New York Center
Mon 11:03:59 AM 40.5472 -75.7772 48° Northeast 168 193 7,000  Level New York Center
Mon 11:05:00 AM 40.5764 -75.7247 54° Northeast 169 194 7,000  Level New York Center
Mon 11:05:59 AM 40.6036 -75.6747 54° Northeast 170 196 7,000  Level New York Center
Mon 11:07:06 AM 40.6372 -75.6169 53° Northeast 170 196 7,000  Level New York Center
Mon 11:08:01 AM 40.6597 -75.5747 55° Northeast 170 196 7,000 -216 Level New York Center
Mon 11:08:57 AM 40.6867 -75.5247 55° Northeast 181 208 6,600 -475 Descending New York Center
Mon 11:10:20 AM 40.7314 -75.4483 52° Northeast 186 214 5,900 -480 Descending New York Center
Mon 11:11:27 AM 40.7731 -75.3992 42° Northeast 188 216 5,400 -425 Descending New York Center
Mon 11:12:27 AM 40.8103 -75.3525 43° Northeast 183 211 5,000 -250 Descending New York Center
Mon 11:13:03 AM 40.8300 -75.3264 45° Northeast 177 204 5,000  Level New York Center
Mon 11:14:05 AM 40.8672 -75.2822 42° Northeast 166 191 5,000  Level New York Center
Mon 11:15:07 AM 40.8978 -75.2403 46° Northeast 166 191 5,000  Level New York Center
Mon 11:16:13 AM 40.9372 -75.1933 42° Northeast 168 193 5,000  Level New York Center
Mon 11:17:13 AM 40.9722 -75.1489 44° Northeast 168 193 5,000  Level New York Center
Mon 11:18:14 AM 41.0050 -75.1069 44° Northeast 168 193 5,000  Level New York Center
Mon 11:19:16 AM 41.0400 -75.0625 44° Northeast 167 192 5,000  Level New York Center
Mon 11:20:16 AM 41.0706 -75.0206 46° Northeast 167 192 5,000  Level New York Center
Mon 11:21:16 AM 41.1075 -74.9786 41° Northeast 167 192 5,000  Level New York Center
Mon 11:23:34 AM 41.1833 -74.8833 43° Northeast 162 186 5,000  Level New York TRACON
Mon 11:24:40 AM 41.2167 -74.8333 48° Northeast 165 190 5,000  Level New York TRACON
Mon 11:25:40 AM 41.2500 -74.7833 48° Northeast 166 191 5,000  Level New York TRACON
Mon 11:26:34 AM 41.2833 -74.7500 37° Northeast 167 192 5,000  Level New York TRACON
Mon 11:27:34 AM 41.3167 -74.7167 37° Northeast 165 190 5,000  Level New York TRACON
Mon 11:28:34 AM 41.3500 -74.6667 48° Northeast 165 190 5,000  Level New York TRACON
Mon 11:29:34 AM 41.3833 -74.6333 37° Northeast 160 184 5,000  Level New York TRACON
Mon 11:30:34 AM 41.4167 -74.5833 48° Northeast 162 186 5,000  Level New York TRACON
Mon 11:31:34 AM 41.4333 -74.5333 66° East 162 186 5,000  Level New York TRACON
Mon 11:32:34 AM 41.4500 -74.4833 66° East 165 190 5,000  Level New York TRACON
Mon 11:33:34 AM 41.4667 -74.4167 72° East 166 191 5,000  Level New York TRACON
Mon 11:34:34 AM 41.5000 -74.3667 48° Northeast 171 197 5,000  Level New York TRACON
Mon 11:35:34 AM 41.5167 -74.3000 72° East 171 197 5,000  Level New York TRACON
Mon 11:36:34 AM 41.5333 -74.2500 66° East 168 193 5,000  Level New York TRACON
Mon 11:37:34 AM 41.5500 -74.2000 66° East 167 192 5,000  Level New York TRACON
Mon 11:38:04 AM 41.5636 -74.1708 58° Northeast 169 194 5,000  Level Boston Center
Mon 11:39:07 AM 41.5839 -74.1158 64° Northeast 168 193 5,000  Level Boston Center
Mon 11:40:07 AM 41.6061 -74.0564 63° Northeast 167 192 5,000  Level Boston Center
Mon 11:41:11 AM 41.6261 -74.0011 64° Northeast 167 192 5,000  Level Boston Center
Mon 11:42:12 AM 41.6464 -73.9458 64° Northeast 167 192 5,000  Level Boston Center
Mon 11:43:15 AM 41.6675 -73.8869 64° Northeast 166 191 5,000  Level Boston Center
Mon 11:44:16 AM 41.6872 -73.8328 64° Northeast 165 190 5,000  Level Boston Center
Mon 11:45:17 AM 41.7083 -73.7739 64° Northeast 165 190 5,000  Level Boston Center
Mon 11:46:20 AM 41.7281 -73.7183 65° Northeast 165 190 5,000  Level Boston Center
Mon 11:47:20 AM 41.7475 -73.6642 64° Northeast 165 190 5,000  Level Boston Center
Mon 11:48:24 AM 41.7686 -73.6067 64° Northeast 163 188 5,000  Level Boston Center
Mon 11:49:25 AM 41.7633 -73.5486 97° East 158 182 5,000  Level Boston Center
Mon 11:51:40 AM 41.7500 -73.4167 98° East 161 185 5,000  Level New York TRACON
Mon 11:52:41 AM 41.7500 -73.3500 90° East 156 180 5,000  Level New York TRACON
Mon 11:53:41 AM 41.7333 -73.3000 114° Southeast 161 185 5,000  Level New York TRACON
Mon 11:54:41 AM 41.7333 -73.2333 90° East 159 183 5,000  Level New York TRACON
Mon 11:55:41 AM 41.7167 -73.1833 114° Southeast 158 182 5,000  Level New York TRACON
Mon 11:56:17 AM 41.7144 -73.1497 95° East 157 181 5,000  Level Boston Center
Mon 11:56:38 AM 41.7142 -73.1306 91° East 158 182 5,000  Level Boston Center
Mon 11:57:18 AM 41.7092 -73.0903 99° East 160 184 5,000  Level Boston Center
Mon 11:57:39 AM 41.7067 -73.0678 98° East 158 182 5,000  Level Boston Center
Mon 11:58:19 AM 41.7017 -73.0328 101° East 157 181 5,000  Level Boston Center
Mon 11:58:40 AM 41.6997 -73.0106 97° East 158 182 5,000  Level Boston Center
Mon 11:59:20 AM 41.6939 -72.9753 102° East 158 182 5,000  Level Boston Center
Mon 11:59:44 AM 41.6914 -72.9478 97° East 158 182 5,000  Level Boston Center
Mon 12:00:20 PM 41.6872 -72.9122 99° East 158 182 5,000  Level Boston Center
Mon 12:00:45 PM 41.6847 -72.8906 99° East 158 182 5,000  Level Boston Center
Mon 12:01:34 PM 41.6803 -72.8406 97° East 158 182 5,000  Level Boston Center
Mon 12:01:46 PM 41.6772 -72.8322 116° Southeast 158 182 5,000  Level Boston Center
Mon 12:02:29 PM 41.6728 -72.7919 98° East 163 188 5,000  Level Boston Center
Mon 12:02:48 PM 41.6692 -72.7697 102° East 158 182 5,000  Level Boston Center
Mon 12:03:22 PM 41.6644 -72.7369 101° East 158 182 5,000  Level Boston Center
Mon 12:03:52 PM 41.6619 -72.7122 98° East 158 182 5,000  Level Boston Center
Mon 12:04:16 PM 41.6594 -72.6864 97° East 157 181 5,000  Level Boston Center
Mon 12:04:52 PM 41.6544 -72.6503 100° East 158 182 5,000  Level Boston Center
Mon 12:05:20 PM 41.6517 -72.6289 100° East 157 181 5,000  Level Boston Center
Mon 12:05:54 PM 41.6478 -72.5928 98° East 158 182 5,000  Level Boston Center
Mon 12:06:18 PM 41.6447 -72.5661 99° East 158 182 5,000  Level Boston Center
Mon 12:06:58 PM 41.6436 -72.5300 92° East 158 182 5,000  Level Boston Center
Mon 12:07:19 PM 41.6494 -72.5103 68° East 151 174 5,000  Level Boston Center
Mon 12:07:58 PM 41.6589 -72.4764 70° East 156 180 5,000  Level Boston Center
Mon 12:08:14 PM 41.6617 -72.4600 77° East 158 182 5,000  Level Boston Center
Mon 12:08:59 PM 41.6714 -72.4156 74° East 156 180 5,000  Level Boston Center
Mon 12:09:14 PM 41.6747 -72.4042 69° East 157 181 5,000  Level Boston Center
Mon 12:10:03 PM 41.6844 -72.3597 74° East 156 180 5,000  Level Boston Center
Mon 12:10:18 PM 41.6861 -72.3478 79° East 158 182 5,000  Level Boston Center
Mon 12:11:03 PM 41.6975 -72.3033 71° East 157 181 5,000  Level Boston Center
Mon 12:11:19 PM 41.6992 -72.2919 79° East 159 183 5,000  Level Boston Center
Mon 12:12:04 PM 41.7108 -72.2422 73° East 157 181 5,000  Level Boston Center
Mon 12:12:25 PM 41.7144 -72.2253 74° East 158 182 5,000  Level Boston Center
Mon 12:13:08 PM 41.7236 -72.1858 73° East 158 182 5,000  Level Boston Center
Mon 12:13:26 PM 41.7275 -72.1694 72° East 158 182 5,000  Level Boston Center
Mon 12:14:08 PM 41.7381 -72.1275 71° East 158 182 5,000  Level Boston Center
Mon 12:14:26 PM 41.7386 -72.1131 87° East 159 183 5,000  Level Boston Center
Mon 12:15:11 PM 41.7489 -72.0700 72° East 158 182 5,000  Level Boston Center
Mon 12:15:24 PM 41.7517 -72.0633 61° Northeast 156 180 5,000  Level Boston Center
Mon 12:16:12 PM 41.7617 -72.0150 74° East 156 180 5,000  Level Boston Center
Mon 12:17:12 PM 41.7742 -71.9561 74° East 163 188 5,000  Level Boston Center
Mon 12:18:13 PM 41.7858 -71.8997 74° East 160 184 5,000 -141 Level Boston Center
Mon 12:19:20 PM 41.8039 -71.8342 70° East 170 196 4,700 -328 Descending Boston Center
Mon 12:20:21 PM 41.8278 -71.7822 58° Northeast 165 190 4,300 -336 Descending Boston Center
Mon 12:21:25 PM 41.8514 -71.7283 60° Northeast 166 191 4,000 -290 Descending Boston Center
Mon 12:22:25 PM 41.8764 -71.6722 59° Northeast 165 190 3,700 -293 Descending Boston Center
Mon 12:23:28 PM 41.8986 -71.6175 61° Northeast 158 182 3,400 -254 Descending Boston Center
Mon 12:24:23 PM 41.9206 -71.5736 56° Northeast 159 183 3,200 -207 Descending Boston Center
Mon 12:25:24 PM 41.9442 -71.5214 59° Northeast 156 180 3,000 -94 Descending Boston Center
Mon 12:26:31 PM 41.9728 -71.4769 49° Northeast 147 169 3,000  Level Boston Center
Mon 12:27:26 PM 41.9975 -71.4397 48° Northeast 150 173 3,000  Level Boston Center
Mon 12:28:27 PM 42.0275 -71.3986 46° Northeast 152 175 3,000 -229 Level Boston Center
Mon 12:29:37 PM 42.0658 -71.3467 45° Northeast 153 176 2,500 -448 Descending Boston Center
Mon 12:30:41 PM 42.0964 -71.3047 46° Northeast 155 178 2,000 -484 Descending Boston Center
Mon 12:31:41 PM 42.1253 -71.2633 47° Northeast 154 177 1,500 -488 Descending Boston Center
Mon 12:32:44 PM 42.1544 -71.2231 46° Northeast 145 167 1,000 -145 Descending Boston Center
Mon 12:33:45 PM 42.1872 -71.2383 341° North 128 147 1,200 97 Climbing Boston Center
Mon 12:34:48 PM 42.2133 -71.2261 19° North 100 115 1,200 -242 Level Boston Center
Mon 12:35:49 PM 42.2183 -71.1933 78° East 105 121 700 -339 Descending Boston Center
Mon 12:36:52 PM 42.2078 -71.1661 118° Southeast 100 115 500 -190 Descending Boston Center

Login

Don't have an account? Register now (free) for customized features, flight alerts, and more!